Pulau Tioman — 3EYO9 — position and weather

sailwx.info

Track history (hours):
 
Tides and Currents Weather Stations Pressure Air Temp Water Temp Dewpoint Dewpoint Depression Visibility Wind Speed Wind Dir Waves Ship Positions

Pulau Tioman

Last reported at 2018-Apr-23 16:27 UTC. Time now 2018-Apr-23 16:51 UTC.
Position N 35°26' E 139°42'.

Length 120 m; draft 5.8 m.

Type: Cargo ship. MMSI: 356613000.

Date/timePositionNaut miles runAvg speedWind from/ knotsBaromVisibWave heightAir tempDewpointWater temp
2018-Apr-23 16:27N 35°26' E 139°42'0 0.0
2018-Apr-23 15:57N 35°26' E 139°42'0 0.0
2018-Apr-23 15:27N 35°26' E 139°42'0 0.0
2018-Apr-23 14:57N 35°26' E 139°42'0 0.0
2018-Apr-23 14:26N 35°26' E 139°42'0 0.0
2018-Apr-23 13:56N 35°26' E 139°42'0 0.0
2018-Apr-23 13:27N 35°26' E 139°42'0 0.0
2018-Apr-23 12:57N 35°26' E 139°42'0 0.0
2018-Apr-23 12:27N 35°26' E 139°42'0 0.0
2018-Apr-23 11:56N 35°26' E 139°42'0 0.0
2018-Apr-23 11:26N 35°26' E 139°42'0 0.0
2018-Apr-23 10:57N 35°26' E 139°42'0 0.0
2018-Apr-23 10:27N 35°26' E 139°42'0 0.0
2018-Apr-23 09:56N 35°26' E 139°42'0 0.0
2018-Apr-23 09:26N 35°26' E 139°42'0 0.2
2018-Apr-23 09:00N 35°26' E 139°42'2 4.9
2018-Apr-23 08:30N 35°23' E 139°43'4 7.5
2018-Apr-23 08:00N 35°20' E 139°43'611.2
2018-Apr-23 07:30N 35°15' E 139°47'713.5
2018-Apr-23 07:00N 35°08' E 139°47'813.2
2018-Apr-23 06:22N 35°02' E 139°40'514.2
2018-Apr-23 06:01N 34°59' E 139°35'4115.1
2018-Apr-23 03:17N 34°30' E 139°00'  
2018-Apr-20 08:01N 31°05' E 122°01'410.6
2018-Apr-20 07:39N 31°06' E 121°57'312.2
2018-Apr-20 07:24N 31°08' E 121°54'20 1.2
2018-Apr-19 14:28N 31°03' E 122°17'712.3
2018-Apr-19 13:54N 31°01' E 122°25'512.4
2018-Apr-19 13:29N 31°03' E 122°31'  
2018-Apr-14 01:12N 33°47' E 130°05'413.8
2018-Apr-14 00:57N 33°49' E 130°09'613.8
2018-Apr-14 00:30N 33°52' E 130°15'714.0
2018-Apr-14 00:00N 33°56' E 130°22'714.2
2018-Apr-13 23:30N 33°58' E 130°30'714.6
2018-Apr-13 22:59N 34°01' E 130°39'714.4
2018-Apr-13 22:30N 34°02' E 130°47'612.7
2018-Apr-13 22:00N 33°58' E 130°53'4 7.1
2018-Apr-13 21:30N 33°56' E 130°56'510.9
2018-Apr-13 21:00N 33°58' E 131°03'815.2
2018-Apr-13 20:30N 33°53' E 131°10'815.3
2018-Apr-13 20:00N 33°51' E 131°19'1615.5
2018-Apr-13 19:00N 33°47' E 131°37'814.2
2018-Apr-13 18:27N 33°43' E 131°45'  
Track history (hours):
 
Tides and Currents Weather Stations Pressure Air Temp Water Temp Dewpoint Dewpoint Depression Visibility Wind Speed Wind Dir Waves Ship Positions

Pulau Tioman

Last reported at 2018-Apr-23 16:27 UTC. Time now 2018-Apr-23 16:51 UTC.
Position N 35°26' E 139°42'.

Length 120 m; draft 5.8 m.

Type: Cargo ship. MMSI: 356613000.

Date/timePositionNaut miles runAvg speedWind from/ knotsBaromVisibWave heightAir tempDewpointWater temp
2018-Apr-23 16:27N 35°26' E 139°42'0 0.0
2018-Apr-23 15:57N 35°26' E 139°42'0 0.0
2018-Apr-23 15:27N 35°26' E 139°42'0 0.0
2018-Apr-23 14:57N 35°26' E 139°42'0 0.0
2018-Apr-23 14:26N 35°26' E 139°42'0 0.0
2018-Apr-23 13:56N 35°26' E 139°42'0 0.0
2018-Apr-23 13:27N 35°26' E 139°42'0 0.0
2018-Apr-23 12:57N 35°26' E 139°42'0 0.0
2018-Apr-23 12:27N 35°26' E 139°42'0 0.0
2018-Apr-23 11:56N 35°26' E 139°42'0 0.0
2018-Apr-23 11:26N 35°26' E 139°42'0 0.0
2018-Apr-23 10:57N 35°26' E 139°42'0 0.0
2018-Apr-23 10:27N 35°26' E 139°42'0 0.0
2018-Apr-23 09:56N 35°26' E 139°42'0 0.0
2018-Apr-23 09:26N 35°26' E 139°42'0 0.2
2018-Apr-23 09:00N 35°26' E 139°42'2 4.9
2018-Apr-23 08:30N 35°23' E 139°43'4 7.5
2018-Apr-23 08:00N 35°20' E 139°43'611.2
2018-Apr-23 07:30N 35°15' E 139°47'713.5
2018-Apr-23 07:00N 35°08' E 139°47'813.2
2018-Apr-23 06:22N 35°02' E 139°40'514.2
2018-Apr-23 06:01N 34°59' E 139°35'4115.1
2018-Apr-23 03:17N 34°30' E 139°00'  
2018-Apr-20 08:01N 31°05' E 122°01'410.6
2018-Apr-20 07:39N 31°06' E 121°57'312.2
2018-Apr-20 07:24N 31°08' E 121°54'20 1.2
2018-Apr-19 14:28N 31°03' E 122°17'712.3
2018-Apr-19 13:54N 31°01' E 122°25'512.4
2018-Apr-19 13:29N 31°03' E 122°31'  
2018-Apr-14 01:12N 33°47' E 130°05'413.8
2018-Apr-14 00:57N 33°49' E 130°09'613.8
2018-Apr-14 00:30N 33°52' E 130°15'714.0
2018-Apr-14 00:00N 33°56' E 130°22'714.2
2018-Apr-13 23:30N 33°58' E 130°30'714.6
2018-Apr-13 22:59N 34°01' E 130°39'714.4
2018-Apr-13 22:30N 34°02' E 130°47'612.7
2018-Apr-13 22:00N 33°58' E 130°53'4 7.1
2018-Apr-13 21:30N 33°56' E 130°56'510.9
2018-Apr-13 21:00N 33°58' E 131°03'815.2
2018-Apr-13 20:30N 33°53' E 131°10'815.3
2018-Apr-13 20:00N 33°51' E 131°19'1615.5
2018-Apr-13 19:00N 33°47' E 131°37'814.2
2018-Apr-13 18:27N 33°43' E 131°45'  

Dump ship's entire track history